Time;durP1;ratioP1;P1;durP2;ratioP2;P2;SDS_P1;SDS_P2;PMS_P1;PMS_P2;Temp;Humidity;BMP_temperature;BMP_pressure;BME280_temperature;BME280_humidity;BME280_pressure;Samples;Min_cycle;Max_cycle;Signal;HPM_P1;HPM_P2
2022/03/04 00:00:41;;;;;;;23.37;22.27;;;18.80;46.00;;;;;;5032064;28;20452;-43
2022/03/04 00:03:08;;;;;;;22.27;21.30;;;18.70;46.00;;;;;;5031814;28;20514;-43
2022/03/04 00:05:34;;;;;;;23.50;22.40;;;18.70;46.20;;;;;;5031728;28;20809;-43
2022/03/04 00:08:01;;;;;;;22.57;21.57;;;18.60;46.20;;;;;;5031423;28;20445;-43
2022/03/04 00:10:28;;;;;;;23.70;22.50;;;18.60;46.40;;;;;;5031851;28;20445;-42
2022/03/04 00:12:55;;;;;;;22.73;21.63;;;18.50;46.50;;;;;;5031986;28;20469;-43
2022/03/04 00:15:23;;;;;;;23.20;22.10;;;18.50;46.60;;;;;;5031856;28;20532;-42
2022/03/04 00:17:51;;;;;;;22.90;21.70;;;18.40;46.70;;;;;;5031630;28;20445;-43
2022/03/04 00:20:18;;;;;;;23.13;22.03;;;18.40;46.80;;;;;;5031872;28;20446;-43
2022/03/04 00:22:45;;;;;;;22.83;21.83;;;18.40;46.90;;;;;;5031607;28;20473;-43
2022/03/04 00:25:12;;;;;;;22.63;21.63;;;18.30;47.00;;;;;;5031444;28;20481;-43
2022/03/04 00:27:39;;;;;;;23.43;22.33;;;18.30;47.10;;;;;;5031703;28;20460;-43
2022/03/04 00:30:07;;;;;;;23.40;22.20;;;18.20;47.20;;;;;;5031608;28;20472;-42
2022/03/04 00:32:36;;;;;;;23.63;22.43;;;18.20;47.30;;;;;;5031501;28;20473;-43
2022/03/04 00:35:03;;;;;;;23.40;22.30;;;18.10;47.40;;;;;;5031387;28;20873;-43
2022/03/04 00:37:29;;;;;;;23.20;22.00;;;18.10;47.60;;;;;;5031521;28;20449;-43
2022/03/04 00:39:56;;;;;;;23.67;22.47;;;18.00;47.60;;;;;;5031437;28;20931;-43
2022/03/04 00:42:23;;;;;;;23.20;22.10;;;18.00;47.80;;;;;;5031773;28;20465;-43
2022/03/04 00:44:50;;;;;;;23.40;22.30;;;18.00;47.90;;;;;;5031297;28;20473;-43
2022/03/04 00:47:17;;;;;;;23.40;22.20;;;17.90;47.90;;;;;;5031825;28;20446;-43
2022/03/04 00:49:45;;;;;;;22.67;21.67;;;17.90;48.00;;;;;;5031354;28;20532;-43
2022/03/04 00:52:11;;;;;;;23.70;22.50;;;17.80;48.00;;;;;;5031314;28;20963;-43
2022/03/04 00:54:38;;;;;;;23.20;22.10;;;17.80;48.20;;;;;;5031627;28;20438;-42
2022/03/04 00:57:05;;;;;;;23.20;22.10;;;17.80;48.30;;;;;;5031469;28;20453;-43
2022/03/04 00:59:32;;;;;;;23.53;22.33;;;17.70;48.30;;;;;;5031416;28;20446;-43
2022/03/04 01:02:01;;;;;;;22.37;21.37;;;17.70;48.40;;;;;;5031950;28;20468;-46
2022/03/04 01:04:28;;;;;;;22.60;21.60;;;17.70;48.50;;;;;;5034064;28;20840;-43
2022/03/04 01:06:56;;;;;;;23.10;22.00;;;17.70;48.60;;;;;;5051228;28;20455;-43
2022/03/04 01:09:23;;;;;;;25.70;24.30;;;17.60;48.60;;;;;;5051199;28;20452;-44
2022/03/04 01:11:50;;;;;;;23.93;22.73;;;17.60;49.20;;;;;;5051159;28;20448;-43
2022/03/04 01:14:16;;;;;;;22.87;21.77;;;17.50;48.70;;;;;;5049910;28;20531;-42
2022/03/04 01:16:43;;;;;;;23.23;22.13;;;17.50;48.80;;;;;;5031323;28;20453;-42
2022/03/04 01:19:10;;;;;;;22.77;21.67;;;17.50;48.90;;;;;;5031048;28;20449;-43
2022/03/04 01:21:38;;;;;;;23.67;22.57;;;17.50;48.90;;;;;;5034559;28;20456;-43
2022/03/04 01:24:07;;;;;;;23.47;22.37;;;17.50;49.00;;;;;;5035137;28;20499;-43
2022/03/04 01:26:34;;;;;;;23.67;22.57;;;17.40;49.00;;;;;;5035304;28;20453;-43
2022/03/04 01:29:00;;;;;;;22.67;21.57;;;17.40;49.10;;;;;;5034865;28;20445;-43
2022/03/04 01:31:27;;;;;;;23.03;22.03;;;17.30;49.20;;;;;;5035100;28;20453;-47
2022/03/04 01:33:54;;;;;;;23.20;22.10;;;17.30;49.30;;;;;;5034950;28;20460;-45
2022/03/04 01:36:21;;;;;;;22.60;21.60;;;17.30;49.50;;;;;;5052013;28;20467;-48
2022/03/04 01:38:47;;;;;;;22.40;21.40;;;17.30;49.40;;;;;;5054486;28;20444;-45
2022/03/04 01:41:15;;;;;;;22.70;21.60;;;17.30;49.40;;;;;;5054790;28;20448;-46
2022/03/04 01:43:42;;;;;;;23.70;22.60;;;17.30;49.50;;;;;;5054465;28;20480;-45
2022/03/04 01:46:14;;;;;;;22.80;21.80;;;17.20;49.40;;;;;;5038712;28;20445;-46
2022/03/04 01:48:41;;;;;;;22.67;21.60;;;17.20;49.50;;;;;;5034462;28;20449;-44
2022/03/04 01:51:10;;;;;;;23.90;22.60;;;17.20;49.50;;;;;;5034473;28;20772;-43
2022/03/04 01:53:37;;;;;;;22.10;21.10;;;17.20;49.60;;;;;;5034543;28;20534;-45
2022/03/04 01:56:05;;;;;;;22.70;21.60;;;17.20;49.60;;;;;;5049410;28;20451;-44
2022/03/04 01:58:34;;;;;;;22.80;21.60;;;17.10;49.60;;;;;;5054180;28;20447;-46
2022/03/04 02:01:01;;;;;;;22.90;21.80;;;17.10;49.60;;;;;;5054293;28;20547;-44
2022/03/04 02:03:27;;;;;;;22.53;21.53;;;17.10;49.70;;;;;;5053973;28;20842;-45
2022/03/04 02:05:54;;;;;;;22.93;21.87;;;17.10;49.70;;;;;;5037941;28;20457;-44
2022/03/04 02:08:21;;;;;;;22.77;21.57;;;17.00;50.30;;;;;;5034204;28;20807;-43
2022/03/04 02:10:48;;;;;;;22.33;21.33;;;17.00;49.80;;;;;;5034345;28;20452;-44
2022/03/04 02:13:16;;;;;;;23.13;21.80;;;17.00;49.80;;;;;;5034340;28;21005;-46
2022/03/04 02:15:45;;;;;;;21.97;21.00;;;17.00;49.90;;;;;;5047879;28;20445;-44
2022/03/04 02:18:13;;;;;;;23.03;22.00;;;17.00;49.90;;;;;;5053735;28;20937;-43
2022/03/04 02:20:41;;;;;;;22.67;21.70;;;16.90;50.00;;;;;;5053826;28;20452;-43
2022/03/04 02:23:12;;;;;;;22.83;21.83;;;16.90;50.00;;;;;;5053805;28;20525;-45
2022/03/04 02:25:39;;;;;;;22.63;21.63;;;16.90;50.10;;;;;;5052506;28;20516;-48
2022/03/04 02:28:06;;;;;;;22.53;21.53;;;16.90;50.10;;;;;;5053637;28;20447;-43
2022/03/04 02:30:33;;;;;;;22.50;21.40;;;16.90;50.10;;;;;;5053303;28;20444;-43
2022/03/04 02:33:00;;;;;;;23.03;21.93;;;16.90;50.10;;;;;;5053554;28;20830;-43
2022/03/04 02:35:30;;;;;;;22.53;21.43;;;16.90;50.20;;;;;;5039365;28;20858;-46
2022/03/04 02:37:56;;;;;;;22.20;21.20;;;16.80;50.10;;;;;;5033474;28;20449;-42
2022/03/04 02:40:25;;;;;;;22.67;21.67;;;16.80;50.10;;;;;;5033603;28;20449;-49
2022/03/04 02:42:51;;;;;;;22.50;21.50;;;16.80;50.20;;;;;;5039691;28;20471;-43
2022/03/04 02:45:18;;;;;;;22.40;21.40;;;16.80;50.20;;;;;;5053342;28;20483;-42
2022/03/04 02:47:45;;;;;;;22.70;21.60;;;16.80;50.70;;;;;;5053288;28;20818;-44
2022/03/04 02:50:12;;;;;;;22.43;21.37;;;16.80;50.20;;;;;;5053413;28;20799;-44
2022/03/04 02:52:38;;;;;;;22.83;21.73;;;16.70;50.20;;;;;;5034994;28;20844;-45
2022/03/04 02:55:10;;;;;;;22.57;21.57;;;16.70;50.30;;;;;;5033345;28;20441;-48
2022/03/04 02:57:39;;;;;;;22.87;21.77;;;16.70;50.40;;;;;;5033471;28;20923;-43
2022/03/04 03:00:06;;;;;;;23.10;22.03;;;16.70;50.40;;;;;;5033183;28;20445;-45
2022/03/04 03:02:33;;;;;;;22.10;21.03;;;16.60;50.50;;;;;;5050091;28;20499;-43
2022/03/04 03:05:00;;;;;;;23.07;21.87;;;16.60;50.50;;;;;;5053139;28;20512;-43
2022/03/04 03:07:28;;;;;;;23.03;22.03;;;16.60;50.50;;;;;;5052974;28;20453;-44
2022/03/04 03:09:55;;;;;;;22.47;21.47;;;16.60;50.50;;;;;;5052838;28;20510;-42
2022/03/04 03:12:21;;;;;;;23.47;22.27;;;16.60;50.60;;;;;;5034862;28;20476;-43
2022/03/04 03:14:50;;;;;;;22.40;21.40;;;16.60;50.70;;;;;;5032966;28;20445;-43
2022/03/04 03:17:16;;;;;;;23.03;21.93;;;16.50;50.70;;;;;;5032909;28;20796;-44
2022/03/04 03:19:43;;;;;;;22.63;21.63;;;16.50;50.70;;;;;;5032755;28;20453;-43
2022/03/04 03:22:10;;;;;;;22.30;21.27;;;16.50;50.80;;;;;;5048530;28;20985;-43
2022/03/04 03:24:36;;;;;;;23.47;22.20;;;16.50;50.80;;;;;;5052658;28;20490;-43
2022/03/04 03:27:04;;;;;;;22.27;21.17;;;16.50;50.90;;;;;;5052839;28;20452;-45
2022/03/04 03:29:30;;;;;;;22.93;21.80;;;16.50;50.80;;;;;;5052380;28;20443;-46
2022/03/04 03:31:58;;;;;;;21.90;20.90;;;16.40;50.80;;;;;;5038246;28;20457;-43
2022/03/04 03:34:25;;;;;;;23.40;22.30;;;16.40;50.90;;;;;;5032571;28;20966;-43
2022/03/04 03:36:52;;;;;;;23.00;21.90;;;16.40;51.00;;;;;;5032738;28;20456;-43
2022/03/04 03:39:19;;;;;;;23.00;21.80;;;16.40;51.10;;;;;;5032389;28;20449;-43
2022/03/04 03:41:45;;;;;;;23.33;22.33;;;16.40;51.10;;;;;;5044335;28;20448;-44
2022/03/04 03:44:12;;;;;;;22.90;21.80;;;16.40;51.20;;;;;;5051549;28;20459;-42
2022/03/04 03:46:39;;;;;;;22.83;21.53;;;16.40;51.20;;;;;;5052301;28;20444;-43
2022/03/04 03:49:08;;;;;;;23.00;21.90;;;16.40;51.20;;;;;;5052022;28;20452;-43
2022/03/04 03:51:35;;;;;;;22.27;21.27;;;16.30;51.10;;;;;;5041608;28;20453;-43
2022/03/04 03:54:02;;;;;;;22.43;21.43;;;16.30;51.10;;;;;;5032184;28;20476;-43
2022/03/04 03:56:28;;;;;;;22.27;21.27;;;16.30;51.30;;;;;;5032227;28;20453;-43
2022/03/04 03:58:55;;;;;;;23.27;22.10;;;16.20;51.30;;;;;;5033903;28;20474;-43
2022/03/04 04:01:22;;;;;;;23.27;22.17;;;16.20;51.60;;;;;;5051998;28;20459;-43
2022/03/04 04:03:49;;;;;;;22.53;21.47;;;16.20;52.20;;;;;;5051764;28;20472;-43
2022/03/04 04:06:17;;;;;;;22.93;21.83;;;16.20;52.60;;;;;;5051922;28;20553;-44
2022/03/04 04:08:44;;;;;;;22.77;21.70;;;16.10;52.70;;;;;;5051105;28;20960;-43
2022/03/04 04:11:12;;;;;;;22.83;21.83;;;16.10;53.00;;;;;;5031978;28;20437;-43
2022/03/04 04:13:38;;;;;;;22.97;21.87;;;16.10;53.20;;;;;;5032103;28;20480;-43
2022/03/04 04:16:05;;;;;;;23.30;22.20;;;16.10;53.40;;;;;;5031869;28;20472;-43
2022/03/04 04:18:32;;;;;;;22.53;21.43;;;16.10;53.50;;;;;;5031678;28;20450;-43
2022/03/04 04:20:59;;;;;;;22.47;21.40;;;16.00;53.60;;;;;;5050222;28;20451;-45
2022/03/04 04:23:27;;;;;;;22.90;21.90;;;16.00;53.70;;;;;;5051618;28;20835;-47
2022/03/04 04:25:54;;;;;;;22.67;21.47;;;16.10;54.00;;;;;;5051550;28;20476;-43
2022/03/04 04:28:21;;;;;;;21.93;21.03;;;16.00;54.20;;;;;;5051547;28;20460;-43
2022/03/04 04:30:48;;;;;;;23.27;22.10;;;16.00;54.40;;;;;;5034510;28;20532;-43
2022/03/04 04:33:15;;;;;;;23.47;22.27;;;16.00;54.60;;;;;;5031635;28;20830;-43
2022/03/04 04:35:42;;;;;;;22.90;21.80;;;16.00;54.70;;;;;;5031604;28;20453;-43
2022/03/04 04:38:08;;;;;;;23.87;22.70;;;16.00;54.80;;;;;;5031586;28;20540;-43
2022/03/04 04:40:37;;;;;;;22.47;21.40;;;16.00;54.90;;;;;;5046242;28;20456;-43
2022/03/04 04:43:04;;;;;;;23.40;22.20;;;16.00;55.00;;;;;;5051456;28;20483;-43
2022/03/04 04:45:31;;;;;;;23.13;21.93;;;16.00;55.10;;;;;;5051402;28;20515;-43
2022/03/04 04:47:57;;;;;;;22.10;21.10;;;15.90;55.20;;;;;;5049752;28;20482;-43
2022/03/04 04:50:24;;;;;;;22.63;21.53;;;15.90;55.70;;;;;;5050782;28;20451;-43
2022/03/04 04:52:51;;;;;;;23.00;21.83;;;16.00;56.10;;;;;;5051347;28;20663;-43
2022/03/04 04:55:18;;;;;;;23.03;21.93;;;16.00;56.30;;;;;;5054622;28;20451;-43
2022/03/04 04:57:46;;;;;;;22.20;21.20;;;16.00;56.30;;;;;;5050201;28;20934;-43
2022/03/04 05:00:14;;;;;;;23.07;21.97;;;16.00;56.50;;;;;;5035526;28;20937;-43
2022/03/04 05:02:41;;;;;;;22.90;21.80;;;15.90;56.50;;;;;;5035366;28;20473;-43
2022/03/04 05:05:08;;;;;;;23.33;22.13;;;15.90;56.70;;;;;;5035299;28;20485;-43
2022/03/04 05:07:35;;;;;;;22.67;21.57;;;15.90;56.70;;;;;;5051999;28;20933;-43
2022/03/04 05:10:02;;;;;;;23.90;22.40;;;15.90;56.80;;;;;;5055319;28;20448;-44
2022/03/04 05:12:29;;;;;;;25.00;23.23;;;15.90;56.90;;;;;;5055130;28;20475;-43
2022/03/04 05:14:57;;;;;;;25.50;23.60;;;15.90;67.20;;;;;;5055221;28;20497;-43
2022/03/04 05:17:25;;;;;;;26.63;24.00;;;15.90;91.00;;;;;;5039542;28;20452;-43
2022/03/04 05:19:52;;;;;;;26.23;23.60;;;15.90;99.90;;;;;;5034934;28;20515;-43
2022/03/04 05:22:19;;;;;;;28.67;25.70;;;16.00;99.90;;;;;;5035021;28;20473;-43
2022/03/04 05:24:46;;;;;;;28.87;22.13;;;16.00;99.90;;;;;;5034970;28;20999;-43
2022/03/04 05:27:13;;;;;;;23.23;21.33;;;16.00;99.90;;;;;;5048167;28;20440;-43
2022/03/04 05:29:39;;;;;;;24.70;22.50;;;16.00;99.90;;;;;;5054719;28;20448;-43
2022/03/04 05:32:08;;;;;;;27.37;23.97;;;15.90;99.90;;;;;;5054959;28;20558;-43
2022/03/04 05:34:36;;;;;;;24.07;22.27;;;15.90;99.90;;;;;;5053207;28;20448;-43
2022/03/04 05:37:03;;;;;;;23.70;22.20;;;15.80;99.90;;;;;;5053501;28;20543;-43
2022/03/04 05:39:30;;;;;;;25.03;23.17;;;15.90;99.90;;;;;;5054290;28;20448;-42
2022/03/04 05:41:57;;;;;;;24.97;22.90;;;15.80;99.90;;;;;;5054476;28;20805;-44
2022/03/04 05:44:23;;;;;;;23.80;22.30;;;15.80;99.90;;;;;;5054402;28;20949;-43
2022/03/04 05:46:50;;;;;;;24.20;22.30;;;15.80;99.90;;;;;;5054593;28;21001;-43
2022/03/04 05:49:18;;;;;;;24.47;22.70;;;15.80;99.90;;;;;;5054285;28;20444;-43
2022/03/04 05:51:45;;;;;;;23.63;22.17;;;16.00;99.90;;;;;;5054668;28;20456;-43
2022/03/04 05:54:12;;;;;;;24.07;22.67;;;16.40;99.90;;;;;;5054359;28;20469;-43
2022/03/04 05:56:39;;;;;;;36.90;34.77;;;16.70;99.90;;;;;;5054425;28;20448;-43
2022/03/04 05:59:05;;;;;;;36.73;34.53;;;16.90;99.90;;;;;;5053995;28;20968;-43
2022/03/04 06:01:32;;;;;;;31.87;29.87;;;17.20;98.80;;;;;;5054194;28;20444;-43
2022/03/04 06:03:59;;;;;;;32.63;30.43;;;17.40;97.00;;;;;;5054134;28;20800;-42
2022/03/04 06:06:28;;;;;;;32.50;30.20;;;17.60;95.40;;;;;;5053445;28;20844;-43
2022/03/04 06:08:55;;;;;;;32.50;30.70;;;17.80;93.90;;;;;;5053870;28;20509;-43
2022/03/04 06:11:21;;;;;;;32.57;30.33;;;17.90;92.40;;;;;;5054398;28;20452;-44
2022/03/04 06:13:48;;;;;;;31.23;29.53;;;18.00;90.90;;;;;;5054203;28;20821;-45
2022/03/04 06:16:15;;;;;;;35.10;33.07;;;18.10;89.30;;;;;;5053884;28;20444;-45
2022/03/04 06:18:41;;;;;;;32.10;30.07;;;18.20;86.90;;;;;;5053752;28;20449;-43
2022/03/04 06:21:08;;;;;;;33.27;31.17;;;18.20;84.70;;;;;;5054094;28;20459;-44
2022/03/04 06:23:36;;;;;;;36.03;34.30;;;18.20;82.40;;;;;;5053765;28;20460;-47
2022/03/04 06:26:03;;;;;;;39.63;37.20;;;18.30;80.40;;;;;;5053958;28;20492;-50
2022/03/04 06:28:30;;;;;;;39.30;37.40;;;18.30;78.50;;;;;;5053678;28;20455;-44
2022/03/04 06:30:57;;;;;;;36.47;34.67;;;18.40;77.10;;;;;;5053640;28;20452;-44
2022/03/04 06:33:33;;;;;;;40.47;38.47;;;18.40;75.30;;;;;;5053901;28;20465;-45
2022/03/04 06:36:01;;;;;;;39.07;36.87;;;18.40;73.90;;;;;;5053757;28;20447;-42
2022/03/04 06:38:28;;;;;;;40.60;38.53;;;18.40;72.60;;;;;;5053429;28;20949;-43
2022/03/04 06:40:57;;;;;;;40.10;38.10;;;18.50;71.60;;;;;;5053446;28;20456;-47
2022/03/04 06:43:23;;;;;;;38.47;36.60;;;18.50;70.40;;;;;;5053366;28;20555;-44
2022/03/04 06:45:50;;;;;;;41.23;39.10;;;18.50;69.30;;;;;;5053332;28;20486;-42
2022/03/04 06:48:19;;;;;;;41.20;39.37;;;18.50;68.30;;;;;;5053272;28;20447;-46
2022/03/04 06:50:46;;;;;;;41.13;39.20;;;18.50;67.40;;;;;;5053338;28;20510;-43
2022/03/04 06:53:13;;;;;;;39.30;37.17;;;18.60;66.60;;;;;;5053250;28;20472;-43
2022/03/04 06:55:40;;;;;;;36.67;34.90;;;18.60;65.70;;;;;;5053333;28;20444;-44
2022/03/04 06:58:08;;;;;;;37.03;35.23;;;18.50;64.90;;;;;;5052950;28;20444;-43
2022/03/04 07:00:35;;;;;;;37.93;36.07;;;18.60;64.40;;;;;;5053098;28;20864;-47
2022/03/04 07:03:02;;;;;;;40.47;38.57;;;18.60;63.70;;;;;;5053451;28;20488;-45
2022/03/04 07:05:29;;;;;;;39.63;37.60;;;18.50;63.00;;;;;;5052869;28;20476;-43
2022/03/04 07:07:56;;;;;;;36.40;34.40;;;18.50;62.50;;;;;;5052842;28;20444;-43
2022/03/04 07:10:23;;;;;;;33.10;31.60;;;18.50;62.10;;;;;;5052837;28;20444;-44
2022/03/04 07:12:51;;;;;;;34.90;33.20;;;18.50;61.70;;;;;;5052803;28;20479;-46
2022/03/04 07:15:21;;;;;;;36.50;34.90;;;18.50;61.20;;;;;;5052892;28;20444;-46
2022/03/04 07:17:48;;;;;;;38.63;36.83;;;18.50;60.80;;;;;;5051506;28;20448;-43
2022/03/04 07:20:15;;;;;;;37.57;35.83;;;18.50;60.40;;;;;;5052622;28;20449;-44
2022/03/04 07:22:43;;;;;;;45.47;43.07;;;18.50;60.80;;;;;;5052674;28;20467;-47
2022/03/04 07:25:11;;;;;;;35.67;34.03;;;18.40;59.70;;;;;;5052517;28;20453;-43
2022/03/04 07:27:39;;;;;;;42.43;40.20;;;18.40;59.50;;;;;;5052565;28;20448;-43
2022/03/04 07:30:09;;;;;;;39.53;37.50;;;18.40;59.30;;;;;;5052540;28;20904;-46
2022/03/04 07:32:37;;;;;;;38.73;37.03;;;18.40;59.10;;;;;;5052544;28;20468;-42
2022/03/04 07:35:06;;;;;;;32.90;31.00;;;18.40;58.90;;;;;;5052571;28;20487;-44
2022/03/04 07:37:33;;;;;;;40.50;38.70;;;18.30;58.70;;;;;;5052490;28;20532;-44
2022/03/04 07:40:00;;;;;;;40.93;39.13;;;18.30;58.50;;;;;;5052211;28;20452;-43
2022/03/04 07:42:26;;;;;;;33.30;31.70;;;18.30;58.40;;;;;;5052178;28;20464;-44
2022/03/04 07:44:53;;;;;;;33.77;32.07;;;18.30;58.20;;;;;;5052425;28;20821;-42
2022/03/04 07:47:20;;;;;;;33.67;32.17;;;18.30;58.10;;;;;;5052188;28;20566;-42
2022/03/04 07:49:49;;;;;;;39.07;37.37;;;18.20;57.90;;;;;;5052199;28;20444;-44
2022/03/04 07:52:15;;;;;;;37.20;35.00;;;18.20;57.80;;;;;;5052150;28;20472;-45
2022/03/04 07:54:43;;;;;;;33.13;31.40;;;18.20;57.70;;;;;;5052266;28;20452;-44
2022/03/04 07:57:10;;;;;;;30.83;29.40;;;18.20;57.50;;;;;;5052136;28;20503;-44
2022/03/04 07:59:36;;;;;;;29.33;28.00;;;18.20;57.40;;;;;;5051902;28;20807;-42
2022/03/04 08:02:03;;;;;;;29.37;27.90;;;18.10;57.20;;;;;;5051847;28;20479;-42
2022/03/04 08:04:30;;;;;;;32.27;30.63;;;18.10;57.10;;;;;;5051856;28;20445;-42
2022/03/04 08:06:58;;;;;;;32.03;30.50;;;18.10;57.10;;;;;;5051878;28;20845;-45
2022/03/04 08:09:25;;;;;;;29.07;27.40;;;18.10;57.00;;;;;;5051724;28;20826;-43
2022/03/04 08:11:51;;;;;;;27.33;26.13;;;18.10;56.90;;;;;;5051650;28;20452;-44
2022/03/04 08:14:18;;;;;;;28.10;26.60;;;18.10;56.80;;;;;;5051814;28;20444;-42
2022/03/04 08:16:45;;;;;;;29.00;27.47;;;18.00;56.70;;;;;;5051817;28;20818;-44
2022/03/04 08:19:12;;;;;;;29.00;27.60;;;18.00;56.60;;;;;;5051798;28;20444;-42
2022/03/04 08:21:39;;;;;;;28.77;27.27;;;18.00;56.50;;;;;;5051663;28;20455;-49
2022/03/04 08:24:07;;;;;;;31.30;29.90;;;18.00;56.40;;;;;;5051945;28;20479;-43
2022/03/04 08:26:38;;;;;;;31.63;30.23;;;18.00;56.30;;;;;;5051494;28;20484;-42
2022/03/04 08:29:05;;;;;;;31.93;30.40;;;18.00;56.30;;;;;;5051270;28;20448;-45
2022/03/04 08:31:32;;;;;;;28.47;26.93;;;18.00;56.20;;;;;;5051617;28;20448;-42
2022/03/04 08:33:58;;;;;;;24.50;23.30;;;17.90;56.10;;;;;;5051298;28;20471;-42
2022/03/04 08:36:25;;;;;;;29.53;28.23;;;17.90;56.00;;;;;;5051411;28;20451;-42
2022/03/04 08:38:52;;;;;;;28.47;26.97;;;17.90;56.00;;;;;;5051656;28;20455;-42
2022/03/04 08:41:20;;;;;;;27.80;26.60;;;17.90;55.90;;;;;;5051490;28;20820;-42
2022/03/04 08:43:49;;;;;;;27.90;26.50;;;17.90;55.90;;;;;;5051452;28;20464;-42
2022/03/04 08:46:16;;;;;;;32.37;30.97;;;17.90;55.90;;;;;;5051446;28;20996;-42
2022/03/04 08:48:43;;;;;;;33.07;31.63;;;18.00;55.90;;;;;;5051645;28;20500;-42
2022/03/04 08:51:09;;;;;;;30.60;29.20;;;18.10;55.80;;;;;;5051571;28;20455;-43
2022/03/04 08:53:37;;;;;;;32.70;31.30;;;18.10;55.60;;;;;;5051383;28;20479;-42
2022/03/04 08:56:05;;;;;;;33.23;31.73;;;18.20;55.40;;;;;;5051619;28;20942;-42
2022/03/04 08:58:33;;;;;;;33.20;31.70;;;18.30;55.10;;;;;;5051414;28;20455;-41
2022/03/04 09:01:00;;;;;;;32.87;31.47;;;18.30;54.80;;;;;;5051868;28;20452;-44
2022/03/04 09:03:27;;;;;;;33.30;31.70;;;18.40;54.50;;;;;;5051302;28;20853;-42
2022/03/04 09:05:54;;;;;;;31.33;29.97;;;18.50;54.30;;;;;;5051209;28;20452;-45
2022/03/04 09:08:20;;;;;;;31.67;30.20;;;18.50;54.00;;;;;;5051057;28;20436;-48
2022/03/04 09:10:47;;;;;;;33.60;32.10;;;18.60;53.90;;;;;;5051189;28;20444;-42
2022/03/04 09:13:14;;;;;;;31.10;29.73;;;18.60;53.70;;;;;;5051082;28;20464;-46
2022/03/04 09:15:42;;;;;;;28.43;27.23;;;18.60;53.40;;;;;;5051178;28;20462;-44
2022/03/04 09:18:09;;;;;;;30.27;28.77;;;18.60;53.20;;;;;;5051127;28;20436;-44
2022/03/04 09:20:36;;;;;;;29.30;27.87;;;18.70;53.10;;;;;;5051053;28;20447;-42
2022/03/04 09:23:03;;;;;;;28.50;27.20;;;18.70;52.80;;;;;;5051436;28;20456;-42
2022/03/04 09:25:30;;;;;;;33.43;31.93;;;18.70;52.60;;;;;;5050972;28;20449;-48
2022/03/04 09:27:56;;;;;;;31.80;30.40;;;18.70;52.40;;;;;;5050759;28;21036;-42
2022/03/04 09:30:23;;;;;;;32.40;31.00;;;18.70;52.30;;;;;;5051250;28;20451;-47
2022/03/04 09:32:51;;;;;;;33.00;31.50;;;18.70;52.20;;;;;;5051259;28;20468;-44
2022/03/04 09:35:18;;;;;;;30.50;29.00;;;18.70;51.90;;;;;;5051065;28;20448;-44
2022/03/04 09:37:45;;;;;;;30.47;29.07;;;18.70;51.80;;;;;;5050769;28;20449;-43
2022/03/04 09:40:13;;;;;;;30.03;28.63;;;18.70;51.60;;;;;;5050829;28;20824;-42
2022/03/04 09:42:41;;;;;;;32.50;31.00;;;18.80;51.50;;;;;;5054115;28;20928;-45
2022/03/04 09:45:09;;;;;;;29.87;28.57;;;18.80;51.40;;;;;;5054593;28;20468;-42
2022/03/04 09:47:36;;;;;;;31.00;29.70;;;18.80;51.30;;;;;;5054355;28;20480;-43
2022/03/04 09:50:06;;;;;;;29.40;28.10;;;18.70;51.00;;;;;;5054290;28;20472;-42
2022/03/04 09:52:33;;;;;;;30.77;29.47;;;18.70;50.90;;;;;;5054377;28;20467;-42
2022/03/04 09:55:01;;;;;;;28.97;27.70;;;18.70;50.80;;;;;;5054348;28;20452;-42
2022/03/04 09:57:27;;;;;;;30.10;28.73;;;18.70;50.70;;;;;;5054334;28;20459;-44
2022/03/04 09:59:54;;;;;;;27.50;26.30;;;18.70;50.60;;;;;;5054238;28;20452;-43
2022/03/04 10:02:23;;;;;;;29.50;28.20;;;18.70;50.60;;;;;;5054142;28;20486;-42
2022/03/04 10:04:59;;;;;;;33.30;31.87;;;18.70;50.50;;;;;;5054149;28;20448;-42
2022/03/04 10:07:27;;;;;;;30.27;28.97;;;18.70;50.40;;;;;;5054071;28;20556;-42
2022/03/04 10:09:54;;;;;;;33.57;31.97;;;18.70;50.40;;;;;;5053871;28;20459;-44
2022/03/04 10:12:22;;;;;;;29.73;28.43;;;18.70;50.30;;;;;;5054021;28;20464;-42
2022/03/04 10:15:01;;;;;;;29.57;28.27;;;18.70;50.30;;;;;;5054090;28;20457;-42
2022/03/04 10:17:28;;;;;;;32.60;31.00;;;18.70;50.30;;;;;;5053913;28;20822;-41
2022/03/04 10:19:56;;;;;;;32.80;31.40;;;18.70;50.10;;;;;;5053669;28;20444;-42
2022/03/04 10:22:24;;;;;;;29.07;27.77;;;18.70;50.00;;;;;;5054139;28;20472;-42
2022/03/04 10:24:52;;;;;;;30.30;28.90;;;18.70;50.00;;;;;;5053830;28;20440;-42
2022/03/04 10:27:19;;;;;;;27.73;26.43;;;18.70;49.90;;;;;;5053829;28;20484;-42
2022/03/04 10:29:47;;;;;;;28.60;27.30;;;18.70;49.80;;;;;;5053913;28;20447;-42
2022/03/04 10:32:18;;;;;;;28.83;27.57;;;18.70;49.80;;;;;;5053586;28;20472;-42
2022/03/04 10:34:52;;;;;;;28.23;26.93;;;18.70;49.80;;;;;;5053763;28;20471;-42
2022/03/04 10:37:21;;;;;;;27.00;25.60;;;18.70;49.80;;;;;;5052747;28;20440;-42
2022/03/04 10:40:02;;;;;;;26.70;25.40;;;18.80;49.80;;;;;;5053351;28;20890;-42
2022/03/04 10:42:44;;;;;;;30.20;28.80;;;18.90;49.80;;;;;;5053418;28;20465;-42
2022/03/04 10:45:14;;;;;;;28.43;27.27;;;19.00;50.30;;;;;;5035847;28;20790;-42
2022/03/04 10:47:44;;;;;;;32.37;30.90;;;19.10;51.10;;;;;;5051845;28;20480;-43
2022/03/04 10:50:11;;;;;;;33.10;31.60;;;19.20;51.20;;;;;;5053386;28;20448;-44
2022/03/04 10:52:49;;;;;;;30.07;28.57;;;19.30;51.30;;;;;;5053102;28;20484;-42
2022/03/04 10:55:27;;;;;;;29.70;28.30;;;19.40;51.60;;;;;;5053428;28;20699;-43
2022/03/04 10:57:54;;;;;;;31.30;29.83;;;19.50;52.40;;;;;;5033183;28;20441;-44
2022/03/04 11:00:25;;;;;;;30.90;29.50;;;19.50;52.40;;;;;;5033607;28;20801;-41
2022/03/04 11:02:53;;;;;;;31.10;29.70;;;19.60;52.50;;;;;;5033318;28;20476;-43
2022/03/04 11:05:20;;;;;;;28.83;27.52;;;19.70;52.50;;;;;;5032441;28;20945;-42
2022/03/04 11:07:49;;;;;;;30.10;28.80;;;19.80;52.40;;;;;;5032751;28;20225;-43
2022/03/04 11:10:17;;;;;;;33.00;31.43;;;19.90;52.20;;;;;;5032886;28;20919;-42
2022/03/04 11:12:49;;;;;;;33.87;32.27;;;19.90;51.90;;;;;;5033351;28;20465;-42
2022/03/04 11:15:17;;;;;;;31.10;29.60;;;20.00;51.70;;;;;;5033171;28;20457;-43
2022/03/04 11:17:45;;;;;;;33.23;31.63;;;20.10;51.60;;;;;;5032840;28;20464;-42
2022/03/04 11:20:13;;;;;;;33.27;31.77;;;20.10;51.50;;;;;;5033078;28;21058;-43
2022/03/04 11:22:40;;;;;;;31.37;29.77;;;20.10;51.30;;;;;;5032766;28;20473;-43
2022/03/04 11:25:10;;;;;;;30.67;29.27;;;20.20;51.20;;;;;;5032795;28;20927;-43
2022/03/04 11:27:43;;;;;;;33.30;31.70;;;20.30;51.10;;;;;;5032447;28;20477;-43
2022/03/04 11:30:38;;;;;;;34.00;32.30;;;20.40;51.00;;;;;;5032664;28;20456;-44
2022/03/04 11:33:16;;;;;;;31.07;29.67;;;20.50;50.80;;;;;;5032791;28;20465;-43
2022/03/04 11:36:03;;;;;;;33.30;31.70;;;20.60;50.70;;;;;;5032631;28;20799;-43
2022/03/04 11:39:05;;;;;;;31.83;30.30;;;20.90;50.50;;;;;;5032546;28;20475;-45
2022/03/04 11:42:01;;;;;;;32.80;31.20;;;21.20;49.60;;;;;;5027946;28;20869;-44
2022/03/04 11:44:30;;;;;;;34.13;32.53;;;21.50;48.70;;;;;;5032484;28;20456;-44
2022/03/04 11:47:01;;;;;;;35.33;33.67;;;22.10;47.60;;;;;;5032357;28;20485;-43
2022/03/04 11:49:33;;;;;;;34.80;33.20;;;23.30;46.30;;;;;;5032113;28;20450;-44
2022/03/04 11:52:29;;;;;;;33.70;32.10;;;25.00;43.70;;;;;;5032281;28;20452;-44
2022/03/04 11:55:12;;;;;;;34.30;32.70;;;26.30;40.50;;;;;;4987319;28;20484;-44
2022/03/04 11:57:40;;;;;;;35.83;34.13;;;27.20;38.40;;;;;;5032299;28;20433;-44
2022/03/04 12:00:26;;;;;;;34.33;32.67;;;27.90;36.80;;;;;;5032120;28;20453;-44
2022/03/04 12:02:54;;;;;;;31.20;29.77;;;28.50;35.40;;;;;;5032002;28;20480;-44
2022/03/04 12:05:45;;;;;;;32.10;30.50;;;28.80;34.40;;;;;;5031774;28;20451;-43
2022/03/04 12:08:13;;;;;;;34.73;33.07;;;29.30;33.60;;;;;;5031945;28;20481;-44
2022/03/04 12:10:45;;;;;;;36.87;34.97;;;29.50;32.70;;;;;;5032006;28;20448;-44
2022/03/04 12:13:14;;;;;;;37.30;35.60;;;29.80;32.10;;;;;;5031947;28;20998;-43
2022/03/04 12:15:45;;;;;;;38.63;36.93;;;30.00;31.60;;;;;;5032276;28;20448;-45
2022/03/04 12:18:18;;;;;;;37.73;36.03;;;30.20;31.20;;;;;;5032023;28;20438;-45
2022/03/04 12:21:03;;;;;;;37.27;35.67;;;30.30;30.80;;;;;;5031776;28;20449;-44
2022/03/04 12:23:33;;;;;;;34.80;33.20;;;30.50;30.40;;;;;;5031959;28;20471;-45
2022/03/04 12:26:20;;;;;;;34.70;33.10;;;30.70;30.10;;;;;;5032273;28;20451;-49
2022/03/04 12:28:49;;;;;;;34.93;33.30;;;30.70;29.90;;;;;;5031668;28;20515;-43
2022/03/04 12:31:20;;;;;;;33.77;32.20;;;30.70;29.80;;;;;;5031990;28;20445;-44
2022/03/04 12:33:50;;;;;;;33.57;31.97;;;30.50;29.70;;;;;;5031679;28;20465;-45